INFORMACIÓN METAR y TAF
METAR FOR LEVT
ADDS - METARS form results

(0218 UTC 22 February 2019)
Data provider http://aviationweather.gov/metar/data/
 
METAR text: LEVT 220200Z 01001KT CAVOK 00/M00 Q1031
Conditions at: LEVT (VITORIA , ES) observed 0200 UTC 22 February 2019
Temperature: 0.0°C (32°F)
Dewpoint: 0.0°C (32°F) [RH = 100%]
Pressure (altimeter): 30.44 inches Hg (1031.0 mb)
Winds: from the N (10 degrees) at 1 MPH (1 knots; 0.5 m/s)
Visibility: 6 or more miles (10+ km)
Ceiling: ceiling and visibility are OK
Clouds: unknown
Weather: no significant weather observed at this time

METAR text: LEVT 220130Z 05001KT CAVOK 01/00 Q1031
Conditions at: LEVT (VITORIA , ES) observed 0130 UTC 22 February 2019
Temperature: 1.0°C (34°F)
Dewpoint: 0.0°C (32°F) [RH = 93%]
Pressure (altimeter): 30.44 inches Hg (1031.0 mb)
Winds: from the NE (50 degrees) at 1 MPH (1 knots; 0.5 m/s)
Visibility: 6 or more miles (10+ km)
Ceiling: ceiling and visibility are OK
Clouds: unknown
Weather: no significant weather observed at this time

Forecast for: LEVT (VITORIA , ES)
Text: TAF LEVT 212300Z 2200/2224 24005KT CAVOK TX19/2215Z TNM02/2206Z
Forecast period: 0000 UTC 22 February 2019 to 0000 UTC 23 February 2019
Forecast type: FROM: standard forecast or significant change
Winds: from the WSW (240 degrees) at 6 MPH (5 knots; 2.6 m/s)
Visibility: 6 or more miles 10+ km)
Ceiling: unknown
Clouds: missing
Weather: no significant weather forecast for this period
Text: PROB30
Forecast period: 0300 to 0900 UTC 22 February 2019
Forecast type: TEMPORARY: The following changes expected for less than half the time period
Visibility: 1.86 miles (2.99 km)
Ceiling: unknown
Clouds: missing
Weather: BR  (mist)
Text: TEMPO 2203/2209 3000 BR
Forecast period: 0300 to 0900 UTC 22 February 2019
Forecast type: TEMPORARY: The following changes expected for less than half the time period
Visibility: 0.93 miles (1.50 km)
Ceiling: unknown
Clouds: missing
Weather: BCFG  (patches of fog)

 MAPA DE AEROPUERTO

 INFORMACIÓN DE PISTA
Pista 04 Longitud 11483 ft Ancho 148 ft
Elevación 1651 ft Umbral desplazado 0 ft Rumbo de pista 36
Pista 22 Longitud 11483 ft Ancho 148 ft
Elevación 1682 ft Umbral desplazado 0 ft Rumbo de pista 216

 FRECUANCIAS DEL AEROPUERTO
Tipo GND Nombre GND Frecuencia 121.8 MHZ
Tipo TWR Nombre TWR Frecuencia 118.45 MHZ

 RADIO AYUDAS DEL AEROPUERTO
Tipo VOR-DME Nombre Vitoria Frecuencia 112900 KHZ
Tipo VOR-DME Nombre Vitoria Frecuencia 116600 KHZ



Powered by Virtual Airlines Manager [v2.6.2]